Time;durP1;ratioP1;P1;durP2;ratioP2;P2;SDS_P1;SDS_P2;PMS_P1;PMS_P2;Temp;Humidity;BMP_temperature;BMP_pressure;BME280_temperature;BME280_humidity;BME280_pressure;Samples;Min_cycle;Max_cycle;Signal;HPM_P1;HPM_P2
2021/11/07 15:28:15;;;;;;;15.95;6.65;;;;;;;;;;4906873;24;20274;-86
2021/11/07 15:30:42;;;;;;;14.07;5.80;;;;;;;;;;4886821;23;20069;-83
2021/11/07 15:33:09;;;;;;;13.85;6.50;;;;;;;;;;4872322;29;20041;-85
2021/11/07 15:35:37;;;;;;;11.30;5.72;;;;;;;;;;4860104;29;20045;-85
2021/11/07 15:38:14;;;;;;;16.67;6.80;;;;;;;;;;4851688;29;20512;-84
2021/11/07 15:40:42;;;;;;;14.35;5.68;;;;;;;;;;4854699;29;20086;-85
2021/11/07 15:43:12;;;;;;;12.93;6.38;;;;;;;;;;4852761;29;20041;-85
2021/11/07 15:46:00;;;;;;;15.05;6.05;;;;;;;;;;4843705;29;20040;-86
2021/11/07 15:48:32;;;;;;;11.15;6.03;;;;;;;;;;4843504;29;20036;-86
2021/11/07 15:51:11;;;;;;;13.80;6.68;;;;;;;;;;4843468;29;20498;-86
2021/11/07 16:01:38;;;;;;;12.05;6.30;;;;;;;;;;4900187;29;20035;-86
2021/11/07 16:09:17;;;;;;;12.82;6.40;;;;;;;;;;4900279;29;20490;-89
2021/11/07 16:12:23;;;;;;;18.42;6.93;;;;;;;;;;4884583;29;20032;-89
2021/11/07 16:17:25;;;;;;;11.27;5.88;;;;;;;;;;4900055;29;20643;-88
2021/11/07 16:19:53;;;;;;;13.80;6.03;;;;;;;;;;4883178;29;20029;-89
2021/11/07 16:22:20;;;;;;;17.55;7.13;;;;;;;;;;4883232;29;20056;-88
2021/11/07 16:24:48;;;;;;;15.98;6.72;;;;;;;;;;4883240;29;20029;-89
2021/11/07 16:27:15;;;;;;;16.42;6.50;;;;;;;;;;4883281;29;20084;-89
2021/11/07 16:29:42;;;;;;;15.52;7.03;;;;;;;;;;4882769;29;20025;-89
2021/11/07 16:37:36;;;;;;;15.80;7.63;;;;;;;;;;4899716;29;20060;-87
2021/11/07 16:40:10;;;;;;;17.67;8.25;;;;;;;;;;4883894;29;20036;-89
2021/11/07 16:42:40;;;;;;;17.15;7.15;;;;;;;;;;4882788;29;20060;-90
2021/11/07 16:45:07;;;;;;;20.65;8.02;;;;;;;;;;4882746;29;20071;-89
2021/11/07 16:47:36;;;;;;;15.15;7.57;;;;;;;;;;4882766;29;20451;-89
2021/11/07 16:50:04;;;;;;;15.75;8.20;;;;;;;;;;4883374;29;20510;-92
2021/11/07 16:52:31;;;;;;;16.13;6.45;;;;;;;;;;4882686;29;20084;-89
2021/11/07 16:55:12;;;;;;;18.98;8.10;;;;;;;;;;4899268;29;20028;-86
2021/11/07 16:57:39;;;;;;;20.02;7.85;;;;;;;;;;4879526;29;20060;-89
2021/11/07 17:05:47;;;;;;;23.40;9.05;;;;;;;;;;4865389;29;20033;-89
2021/11/07 17:08:22;;;;;;;21.67;9.85;;;;;;;;;;4879645;29;20496;-89
2021/11/07 17:10:49;;;;;;;24.33;9.85;;;;;;;;;;4879848;29;20037;-86
2021/11/07 17:13:16;;;;;;;16.98;7.68;;;;;;;;;;4879254;29;20037;-82
2021/11/07 17:29:14;;;;;;;18.52;7.57;;;;;;;;;;4860176;29;20096;-90
2021/11/07 17:32:11;;;;;;;19.80;7.72;;;;;;;;;;4847117;29;20387;-92
2021/11/07 17:34:50;;;;;;;15.40;6.45;;;;;;;;;;4859145;29;20033;-86
2021/11/07 17:37:21;;;;;;;16.27;7.43;;;;;;;;;;4844889;29;20555;-85
2021/11/07 17:56:20;;;;;;;18.63;8.10;;;;;;;;;;4862378;29;20041;-87
2021/11/07 17:58:46;;;;;;;20.38;8.70;;;;;;;;;;4862548;29;20066;-85
2021/11/07 18:01:14;;;;;;;17.73;8.05;;;;;;;;;;4846011;29;20036;-89
2021/11/07 18:03:43;;;;;;;22.15;9.30;;;;;;;;;;4846472;29;20543;-85
2021/11/07 18:06:11;;;;;;;16.13;8.02;;;;;;;;;;4845047;29;20033;-86
2021/11/07 18:08:40;;;;;;;19.63;8.48;;;;;;;;;;4845151;29;20419;-88
2021/11/07 18:11:09;;;;;;;21.20;8.70;;;;;;;;;;4845287;29;20033;-88
2021/11/07 18:13:37;;;;;;;26.35;12.75;;;;;;;;;;4845055;29;20025;-89
2021/11/07 18:16:04;;;;;;;26.40;12.73;;;;;;;;;;4845021;29;20049;-90
2021/11/07 18:18:31;;;;;;;19.33;8.80;;;;;;;;;;4864285;29;20038;-87
2021/11/07 18:20:58;;;;;;;15.65;6.78;;;;;;;;;;4848294;29;20044;-89
2021/11/07 18:23:45;;;;;;;21.42;6.82;;;;;;;;;;4864745;29;20086;-89
2021/11/07 18:26:14;;;;;;;16.73;6.80;;;;;;;;;;4848235;29;20033;-89
2021/11/07 18:28:41;;;;;;;12.90;6.30;;;;;;;;;;4847653;29;20503;-89
2021/11/07 18:31:07;;;;;;;16.63;6.35;;;;;;;;;;4848078;29;20049;-90
2021/11/07 18:33:34;;;;;;;11.32;5.78;;;;;;;;;;4848280;29;20489;-89
2021/11/07 18:36:01;;;;;;;16.83;6.75;;;;;;;;;;4847953;29;20448;-87
2021/11/07 18:41:31;;;;;;;7.80;4.35;;;;;;;;;;4850303;29;20117;-90
2021/11/07 18:43:57;;;;;;;10.65;4.03;;;;;;;;;;4845784;29;20041;-88
2021/11/07 18:46:25;;;;;;;7.28;3.25;;;;;;;;;;4845120;29;20030;-89
2021/11/07 18:48:51;;;;;;;7.38;3.60;;;;;;;;;;4844986;29;20034;-87
2021/11/07 18:51:18;;;;;;;5.93;3.00;;;;;;;;;;4843217;29;20030;-84
2021/11/07 18:53:45;;;;;;;7.25;3.10;;;;;;;;;;4828807;29;20033;-83
2021/11/07 18:56:12;;;;;;;8.20;3.90;;;;;;;;;;4828407;29;20548;-84
2021/11/07 18:58:38;;;;;;;7.82;3.47;;;;;;;;;;4829232;29;20070;-84
2021/11/07 19:01:05;;;;;;;6.93;2.78;;;;;;;;;;4829580;29;20113;-83
2021/11/07 19:03:31;;;;;;;6.05;2.50;;;;;;;;;;4829244;29;20487;-85
2021/11/07 19:05:57;;;;;;;5.63;2.67;;;;;;;;;;4829568;29;20117;-84
2021/11/07 19:08:25;;;;;;;5.07;2.33;;;;;;;;;;4829460;29;20037;-84
2021/11/07 19:10:54;;;;;;;7.03;2.90;;;;;;;;;;4829137;29;20034;-84
2021/11/07 19:13:20;;;;;;;7.13;2.92;;;;;;;;;;4829515;29;20063;-85
2021/11/07 19:15:46;;;;;;;7.30;2.88;;;;;;;;;;4830804;29;20045;-85
2021/11/07 19:18:13;;;;;;;6.47;3.05;;;;;;;;;;4829630;29;20034;-84
2021/11/07 19:20:40;;;;;;;6.80;2.95;;;;;;;;;;4842919;29;20085;-83
2021/11/07 19:23:06;;;;;;;4.15;2.33;;;;;;;;;;4835050;29;20388;-83
2021/11/07 19:25:33;;;;;;;9.38;3.08;;;;;;;;;;4833039;29;20022;-84
2021/11/07 19:28:00;;;;;;;6.32;2.60;;;;;;;;;;4826030;29;20046;-88
2021/11/07 19:30:27;;;;;;;6.68;2.90;;;;;;;;;;4810182;29;20038;-88
2021/11/07 19:32:56;;;;;;;9.50;3.40;;;;;;;;;;4810551;29;20129;-86
2021/11/07 19:35:23;;;;;;;8.38;3.05;;;;;;;;;;4810726;29;20476;-88
2021/11/07 19:37:52;;;;;;;6.47;2.65;;;;;;;;;;4811286;29;20038;-88
2021/11/07 19:40:19;;;;;;;9.00;2.72;;;;;;;;;;4814882;29;20027;-88
2021/11/07 19:42:46;;;;;;;5.38;2.35;;;;;;;;;;4812111;29;20038;-87
2021/11/07 19:45:12;;;;;;;5.15;2.28;;;;;;;;;;4810184;29;20063;-85
2021/11/07 19:47:51;;;;;;;3.50;1.98;;;;;;;;;;4826724;29;20069;-85
2021/11/07 19:50:25;;;;;;;4.90;2.20;;;;;;;;;;4810086;29;20027;-85
2021/11/07 19:52:51;;;;;;;4.50;2.25;;;;;;;;;;4810078;29;20061;-87
2021/11/07 19:55:18;;;;;;;2.90;1.63;;;;;;;;;;4809937;29;20042;-84
2021/11/07 19:57:44;;;;;;;5.13;2.33;;;;;;;;;;4809702;29;20039;-83
2021/11/07 20:00:35;;;;;;;3.30;1.83;;;;;;;;;;4809722;29;20114;-85
2021/11/07 20:03:18;;;;;;;5.85;2.20;;;;;;;;;;4810014;29;20121;-84
2021/11/07 20:10:57;;;;;;;5.82;2.10;;;;;;;;;;4827163;29;20058;-85
2021/11/07 20:13:24;;;;;;;4.97;1.60;;;;;;;;;;4810369;29;20053;-87
2021/11/07 20:15:52;;;;;;;3.35;1.55;;;;;;;;;;4809960;29;20030;-89
2021/11/07 20:18:20;;;;;;;2.88;1.65;;;;;;;;;;4809963;29;20050;-88
2021/11/07 20:20:46;;;;;;;2.85;1.23;;;;;;;;;;4809885;29;20476;-88
2021/11/07 20:23:13;;;;;;;3.85;1.50;;;;;;;;;;4809854;29;20058;-90
2021/11/07 20:25:41;;;;;;;3.67;1.45;;;;;;;;;;4826850;29;20027;-89
2021/11/07 20:28:12;;;;;;;4.18;1.92;;;;;;;;;;4809354;29;20057;-85
2021/11/07 20:30:38;;;;;;;4.43;1.65;;;;;;;;;;4809807;29;20038;-89
2021/11/07 20:33:08;;;;;;;4.38;1.92;;;;;;;;;;4810778;29;20034;-86
2021/11/07 20:35:37;;;;;;;5.53;2.35;;;;;;;;;;4811031;29;20063;-87
2021/11/07 20:38:08;;;;;;;4.07;1.77;;;;;;;;;;4841437;29;20045;-85
2021/11/07 20:40:38;;;;;;;4.72;1.70;;;;;;;;;;4827665;29;20403;-85
2021/11/07 20:43:15;;;;;;;5.55;1.73;;;;;;;;;;4827991;29;20387;-85
2021/11/07 20:48:31;;;;;;;5.05;1.83;;;;;;;;;;4833954;29;20510;-82
2021/11/07 20:51:09;;;;;;;4.35;2.10;;;;;;;;;;4832899;29;20426;-83
2021/11/07 20:53:38;;;;;;;3.58;2.22;;;;;;;;;;4818757;29;20030;-83
2021/11/07 21:04:00;;;;;;;2.85;1.48;;;;;;;;;;4831501;29;20061;-83
2021/11/07 21:17:30;;;;;;;5.93;1.60;;;;;;;;;;4824066;29;20427;-83
2021/11/07 21:27:54;;;;;;;3.30;1.60;;;;;;;;;;4824033;29;20096;-84
2021/11/07 21:30:21;;;;;;;3.53;1.60;;;;;;;;;;4822709;29;20019;-84
2021/11/07 21:32:47;;;;;;;4.40;1.60;;;;;;;;;;4822791;29;20034;-84
2021/11/07 21:42:45;;;;;;;;;;;;;;;;;;4824617;29;20030;-84
2021/11/07 21:45:12;;;;;;;3.25;1.70;;;;;;;;;;4807989;29;20351;-88
2021/11/07 21:47:39;;;;;;;4.63;2.05;;;;;;;;;;4822902;29;20034;-88
2021/11/07 21:50:06;;;;;;;4.68;2.40;;;;;;;;;;4824028;29;20369;-87
2021/11/07 21:52:32;;;;;;;4.20;1.60;;;;;;;;;;4825841;29;20469;-87
2021/11/07 21:54:58;;;;;;;4.18;1.70;;;;;;;;;;4825999;29;20473;-84
2021/11/07 21:57:25;;;;;;;4.85;2.38;;;;;;;;;;4826096;29;20045;-84
2021/11/07 21:59:52;;;;;;;8.20;2.35;;;;;;;;;;4826221;29;20210;-84
2021/11/07 22:02:19;;;;;;;5.47;2.58;;;;;;;;;;4811228;29;20421;-87
2021/11/07 22:04:45;;;;;;;10.93;2.63;;;;;;;;;;4825967;29;20041;-87
2021/11/07 22:07:11;;;;;;;3.97;2.33;;;;;;;;;;4826143;29;20035;-85
2021/11/07 22:09:38;;;;;;;4.82;2.05;;;;;;;;;;4826165;29;20030;-87
2021/11/07 22:12:06;;;;;;;6.18;2.22;;;;;;;;;;4827050;29;20033;-85
2021/11/07 22:14:42;;;;;;;5.95;2.47;;;;;;;;;;4826301;29;20035;-84
2021/11/07 22:17:15;;;;;;;6.07;2.30;;;;;;;;;;4826263;29;20026;-85
2021/11/07 22:19:43;;;;;;;4.35;1.90;;;;;;;;;;4826034;29;20084;-88
2021/11/07 22:22:21;;;;;;;4.45;1.90;;;;;;;;;;4826018;29;20034;-88
2021/11/07 22:24:58;;;;;;;3.88;1.90;;;;;;;;;;4826242;29;20125;-86
2021/11/07 22:27:27;;;;;;;4.75;2.22;;;;;;;;;;4825852;29;20077;-84
2021/11/07 22:30:01;;;;;;;3.92;2.00;;;;;;;;;;4825346;29;20121;-84
2021/11/07 22:32:30;;;;;;;4.07;1.83;;;;;;;;;;4825984;29;20031;-87
2021/11/07 22:35:04;;;;;;;3.03;1.70;;;;;;;;;;4825464;29;20034;-88
2021/11/07 22:37:30;;;;;;;;;;;;;;;;;;4826435;29;20086;-88
2021/11/07 22:39:57;;;;;;;5.88;2.00;;;;;;;;;;4811031;29;20262;-87
2021/11/07 22:42:24;;;;;;;3.67;1.52;;;;;;;;;;4825673;29;20083;-88
2021/11/07 22:44:55;;;;;;;3.10;1.73;;;;;;;;;;4825834;29;20474;-88
2021/11/07 22:47:35;;;;;;;3.90;2.00;;;;;;;;;;4825644;29;20073;-85
2021/11/07 22:50:05;;;;;;;5.20;2.20;;;;;;;;;;4825640;29;20035;-85
2021/11/07 22:52:45;;;;;;;4.63;2.22;;;;;;;;;;4825447;29;20031;-88
2021/11/07 22:55:30;;;;;;;5.25;2.10;;;;;;;;;;4826000;29;20042;-86
2021/11/07 23:03:20;;;;;;;5.07;2.50;;;;;;;;;;4826132;29;20042;-88
2021/11/07 23:05:50;;;;;;;4.50;2.13;;;;;;;;;;4825656;29;20030;-85
2021/11/07 23:11:19;;;;;;;4.72;2.20;;;;;;;;;;4826503;29;20514;-89
2021/11/07 23:13:46;;;;;;;6.55;2.53;;;;;;;;;;4825473;29;20082;-87
2021/11/07 23:16:12;;;;;;;4.72;2.53;;;;;;;;;;4810115;29;20377;-83
2021/11/07 23:18:41;;;;;;;5.78;2.20;;;;;;;;;;4825355;29;20042;-87
2021/11/07 23:21:07;;;;;;;6.57;2.30;;;;;;;;;;4825749;29;20452;-85
2021/11/07 23:23:35;;;;;;;4.30;2.20;;;;;;;;;;4825557;29;20120;-88
2021/11/07 23:26:01;;;;;;;5.30;2.20;;;;;;;;;;4828203;29;20109;-84
2021/11/07 23:28:27;;;;;;;4.80;2.50;;;;;;;;;;4829337;29;20069;-87
2021/11/07 23:30:55;;;;;;;4.97;2.10;;;;;;;;;;4828228;29;20450;-83
2021/11/07 23:33:23;;;;;;;4.10;2.13;;;;;;;;;;4837213;29;20051;-85
2021/11/07 23:35:52;;;;;;;9.02;2.17;;;;;;;;;;4835514;29;20063;-84
2021/11/07 23:38:18;;;;;;;5.18;2.10;;;;;;;;;;4835899;29;20038;-83
2021/11/07 23:40:47;;;;;;;4.68;2.08;;;;;;;;;;4835552;29;20030;-87
2021/11/07 23:43:14;;;;;;;3.95;1.83;;;;;;;;;;4835045;29;20045;-83
2021/11/07 23:45:43;;;;;;;4.43;2.10;;;;;;;;;;4835409;29;20030;-88
2021/11/07 23:48:10;;;;;;;5.78;2.30;;;;;;;;;;4826045;29;20058;-88
2021/11/07 23:55:38;;;;;;;5.35;2.28;;;;;;;;;;4825560;29;20039;-88
2021/11/07 23:58:05;;;;;;;6.20;2.50;;;;;;;;;;4824313;29;20042;-88
